<?xml version="1.0" encoding="UTF-8" standalone="no" ?>
<gpx xmlns="http://www.topografix.com/GPX/1/1" xmlns:xsi="http://www.w3.org/2001/XMLSchema-instance" xsi:schemaLocation="http://www.topografix.com/GPX/1/1 http://www.topografix.com/GPX/1/1/gpx.xsd" version="1.1" creator="VisuGPX - https://www.visugpx.com">
  <metadata>
    <name>igny verrière sceaux</name>
    <desc><![CDATA[AVF Antony JP Brethes igny verrière sceaux]]></desc>
  </metadata>
  <trk>
    <name><![CDATA[igny verrière sceaux]]></name>
    <cmt><![CDATA[23 juin 2014 22:35:28]]></cmt>
    <trkseg>
      <trkpt lat="48.7388" lon="2.23321">
        <ele>69</ele>
        <time>2013-11-10T12:01:22Z</time>
      </trkpt>
      <trkpt lat="48.7388" lon="2.23321">
        <ele>69</ele>
        <time>2013-11-10T12:01:23Z</time>
      </trkpt>
      <trkpt lat="48.73878" lon="2.23323">
        <ele>69</ele>
        <time>2013-11-10T12:01:47Z</time>
      </trkpt>
      <trkpt lat="48.73868" lon="2.23357">
        <ele>69</ele>
        <time>2013-11-10T12:02:22Z</time>
      </trkpt>
      <trkpt lat="48.73882" lon="2.23387">
        <ele>68</ele>
        <time>2013-11-10T12:02:45Z</time>
      </trkpt>
      <trkpt lat="48.73942" lon="2.23475">
        <ele>65</ele>
        <time>2013-11-10T12:03:38Z</time>
      </trkpt>
      <trkpt lat="48.73986" lon="2.23529">
        <ele>63</ele>
        <time>2013-11-10T12:04:22Z</time>
      </trkpt>
      <trkpt lat="48.74104" lon="2.23651">
        <ele>71</ele>
        <time>2013-11-10T12:05:46Z</time>
      </trkpt>
      <trkpt lat="48.7412" lon="2.2367">
        <ele>73</ele>
        <time>2013-11-10T12:05:59Z</time>
      </trkpt>
      <trkpt lat="48.74144" lon="2.23686">
        <ele>77</ele>
        <time>2013-11-10T12:06:19Z</time>
      </trkpt>
      <trkpt lat="48.74164" lon="2.23694">
        <ele>79</ele>
        <time>2013-11-10T12:06:35Z</time>
      </trkpt>
      <trkpt lat="48.74193" lon="2.23702">
        <ele>83</ele>
        <time>2013-11-10T12:06:58Z</time>
      </trkpt>
      <trkpt lat="48.7422" lon="2.23712">
        <ele>90</ele>
        <time>2013-11-10T12:07:25Z</time>
      </trkpt>
      <trkpt lat="48.74236" lon="2.23718">
        <ele>94</ele>
        <time>2013-11-10T12:07:43Z</time>
      </trkpt>
      <trkpt lat="48.74249" lon="2.23726">
        <ele>98</ele>
        <time>2013-11-10T12:08:02Z</time>
      </trkpt>
      <trkpt lat="48.74262" lon="2.2373">
        <ele>102</ele>
        <time>2013-11-10T12:08:22Z</time>
      </trkpt>
      <trkpt lat="48.74285" lon="2.23737">
        <ele>108</ele>
        <time>2013-11-10T12:08:51Z</time>
      </trkpt>
      <trkpt lat="48.74304" lon="2.23746">
        <ele>112</ele>
        <time>2013-11-10T12:09:10Z</time>
      </trkpt>
      <trkpt lat="48.74319" lon="2.23753">
        <ele>116</ele>
        <time>2013-11-10T12:09:25Z</time>
      </trkpt>
      <trkpt lat="48.74335" lon="2.23759">
        <ele>120</ele>
        <time>2013-11-10T12:09:42Z</time>
      </trkpt>
      <trkpt lat="48.74359" lon="2.23769">
        <ele>127</ele>
        <time>2013-11-10T12:10:12Z</time>
      </trkpt>
      <trkpt lat="48.74381" lon="2.23774">
        <ele>132</ele>
        <time>2013-11-10T12:10:35Z</time>
      </trkpt>
      <trkpt lat="48.74381" lon="2.23775">
        <ele>132</ele>
        <time>2013-11-10T12:10:36Z</time>
      </trkpt>
      <trkpt lat="48.74406" lon="2.23785">
        <ele>136</ele>
        <time>2013-11-10T12:11:02Z</time>
      </trkpt>
      <trkpt lat="48.74419" lon="2.23791">
        <ele>139</ele>
        <time>2013-11-10T12:11:16Z</time>
      </trkpt>
      <trkpt lat="48.74478" lon="2.23816">
        <ele>145</ele>
        <time>2013-11-10T12:12:05Z</time>
      </trkpt>
      <trkpt lat="48.7451" lon="2.23827">
        <ele>147</ele>
        <time>2013-11-10T12:12:32Z</time>
      </trkpt>
      <trkpt lat="48.74572" lon="2.23856">
        <ele>150</ele>
        <time>2013-11-10T12:13:20Z</time>
      </trkpt>
      <trkpt lat="48.74587" lon="2.23865">
        <ele>150</ele>
        <time>2013-11-10T12:13:29Z</time>
      </trkpt>
      <trkpt lat="48.7461" lon="2.23943">
        <ele>151</ele>
        <time>2013-11-10T12:14:05Z</time>
      </trkpt>
      <trkpt lat="48.74626" lon="2.24043">
        <ele>150</ele>
        <time>2013-11-10T12:14:46Z</time>
      </trkpt>
      <trkpt lat="48.74629" lon="2.24157">
        <ele>150</ele>
        <time>2013-11-10T12:15:33Z</time>
      </trkpt>
      <trkpt lat="48.7463" lon="2.24297">
        <ele>152</ele>
        <time>2013-11-10T12:16:29Z</time>
      </trkpt>
      <trkpt lat="48.74629" lon="2.24304">
        <ele>153</ele>
        <time>2013-11-10T12:16:33Z</time>
      </trkpt>
      <trkpt lat="48.74581" lon="2.24357">
        <ele>152</ele>
        <time>2013-11-10T12:17:09Z</time>
      </trkpt>
      <trkpt lat="48.74539" lon="2.24359">
        <ele>150</ele>
        <time>2013-11-10T12:17:38Z</time>
      </trkpt>
      <trkpt lat="48.74536" lon="2.24356">
        <ele>150</ele>
        <time>2013-11-10T12:17:40Z</time>
      </trkpt>
      <trkpt lat="48.74479" lon="2.24306">
        <ele>147</ele>
        <time>2013-11-10T12:18:24Z</time>
      </trkpt>
      <trkpt lat="48.74455" lon="2.24289">
        <ele>147</ele>
        <time>2013-11-10T12:18:41Z</time>
      </trkpt>
      <trkpt lat="48.7437" lon="2.2422">
        <ele>142</ele>
        <time>2013-11-10T12:19:41Z</time>
      </trkpt>
      <trkpt lat="48.74337" lon="2.24196">
        <ele>138</ele>
        <time>2013-11-10T12:20:04Z</time>
      </trkpt>
      <trkpt lat="48.74316" lon="2.2422">
        <ele>137</ele>
        <time>2013-11-10T12:20:23Z</time>
      </trkpt>
      <trkpt lat="48.74304" lon="2.24246">
        <ele>137</ele>
        <time>2013-11-10T12:20:37Z</time>
      </trkpt>
      <trkpt lat="48.74314" lon="2.2433">
        <ele>141</ele>
        <time>2013-11-10T12:21:15Z</time>
      </trkpt>
      <trkpt lat="48.74336" lon="2.24401">
        <ele>144</ele>
        <time>2013-11-10T12:21:49Z</time>
      </trkpt>
      <trkpt lat="48.74358" lon="2.24491">
        <ele>147</ele>
        <time>2013-11-10T12:22:30Z</time>
      </trkpt>
      <trkpt lat="48.74336" lon="2.24553">
        <ele>146</ele>
        <time>2013-11-10T12:23:03Z</time>
      </trkpt>
      <trkpt lat="48.74325" lon="2.24565">
        <ele>145</ele>
        <time>2013-11-10T12:23:15Z</time>
      </trkpt>
      <trkpt lat="48.74309" lon="2.24587">
        <ele>143</ele>
        <time>2013-11-10T12:23:28Z</time>
      </trkpt>
      <trkpt lat="48.74324" lon="2.24655">
        <ele>144</ele>
        <time>2013-11-10T12:24:00Z</time>
      </trkpt>
      <trkpt lat="48.74346" lon="2.24666">
        <ele>146</ele>
        <time>2013-11-10T12:24:16Z</time>
      </trkpt>
      <trkpt lat="48.74384" lon="2.24653">
        <ele>150</ele>
        <time>2013-11-10T12:24:44Z</time>
      </trkpt>
      <trkpt lat="48.74421" lon="2.24642">
        <ele>152</ele>
        <time>2013-11-10T12:25:12Z</time>
      </trkpt>
      <trkpt lat="48.74439" lon="2.24654">
        <ele>153</ele>
        <time>2013-11-10T12:25:26Z</time>
      </trkpt>
      <trkpt lat="48.74459" lon="2.2467">
        <ele>153</ele>
        <time>2013-11-10T12:25:41Z</time>
      </trkpt>
      <trkpt lat="48.74483" lon="2.24697">
        <ele>154</ele>
        <time>2013-11-10T12:26:01Z</time>
      </trkpt>
      <trkpt lat="48.74491" lon="2.24707">
        <ele>154</ele>
        <time>2013-11-10T12:26:07Z</time>
      </trkpt>
      <trkpt lat="48.74555" lon="2.24788">
        <ele>153</ele>
        <time>2013-11-10T12:27:03Z</time>
      </trkpt>
      <trkpt lat="48.74584" lon="2.24817">
        <ele>155</ele>
        <time>2013-11-10T12:27:27Z</time>
      </trkpt>
      <trkpt lat="48.74636" lon="2.24814">
        <ele>160</ele>
        <time>2013-11-10T12:28:02Z</time>
      </trkpt>
      <trkpt lat="48.74691" lon="2.24808">
        <ele>162</ele>
        <time>2013-11-10T12:28:38Z</time>
      </trkpt>
      <trkpt lat="48.74718" lon="2.24806">
        <ele>162</ele>
        <time>2013-11-10T12:28:57Z</time>
      </trkpt>
      <trkpt lat="48.74762" lon="2.24849">
        <ele>163</ele>
        <time>2013-11-10T12:29:29Z</time>
      </trkpt>
      <trkpt lat="48.74813" lon="2.24896">
        <ele>164</ele>
        <time>2013-11-10T12:30:07Z</time>
      </trkpt>
      <trkpt lat="48.74847" lon="2.24973">
        <ele>162</ele>
        <time>2013-11-10T12:30:46Z</time>
      </trkpt>
      <trkpt lat="48.74847" lon="2.24973">
        <ele>162</ele>
        <time>2013-11-10T12:30:47Z</time>
      </trkpt>
      <trkpt lat="48.74866" lon="2.24955">
        <ele>162</ele>
        <time>2013-11-10T12:31:20Z</time>
      </trkpt>
      <trkpt lat="48.74901" lon="2.25005">
        <ele>159</ele>
        <time>2013-11-10T12:32:05Z</time>
      </trkpt>
      <trkpt lat="48.74901" lon="2.25013">
        <ele>159</ele>
        <time>2013-11-10T12:32:09Z</time>
      </trkpt>
      <trkpt lat="48.74911" lon="2.25039">
        <ele>156</ele>
        <time>2013-11-10T12:32:33Z</time>
      </trkpt>
      <trkpt lat="48.74956" lon="2.25046">
        <ele>155</ele>
        <time>2013-11-10T12:33:11Z</time>
      </trkpt>
      <trkpt lat="48.75005" lon="2.25046">
        <ele>154</ele>
        <time>2013-11-10T12:34:12Z</time>
      </trkpt>
      <trkpt lat="48.75006" lon="2.25047">
        <ele>154</ele>
        <time>2013-11-10T12:34:13Z</time>
      </trkpt>
      <trkpt lat="48.75032" lon="2.25057">
        <ele>153</ele>
        <time>2013-11-10T12:34:38Z</time>
      </trkpt>
      <trkpt lat="48.75059" lon="2.25039">
        <ele>157</ele>
        <time>2013-11-10T12:35:09Z</time>
      </trkpt>
      <trkpt lat="48.75083" lon="2.25075">
        <ele>155</ele>
        <time>2013-11-10T12:35:35Z</time>
      </trkpt>
      <trkpt lat="48.751" lon="2.25102">
        <ele>155</ele>
        <time>2013-11-10T12:35:52Z</time>
      </trkpt>
      <trkpt lat="48.75146" lon="2.2512">
        <ele>158</ele>
        <time>2013-11-10T12:36:33Z</time>
      </trkpt>
      <trkpt lat="48.75196" lon="2.2515">
        <ele>161</ele>
        <time>2013-11-10T12:37:31Z</time>
      </trkpt>
      <trkpt lat="48.75189" lon="2.25211">
        <ele>161</ele>
        <time>2013-11-10T12:38:06Z</time>
      </trkpt>
      <trkpt lat="48.75186" lon="2.25228">
        <ele>161</ele>
        <time>2013-11-10T12:38:14Z</time>
      </trkpt>
      <trkpt lat="48.75182" lon="2.25263">
        <ele>162</ele>
        <time>2013-11-10T12:38:30Z</time>
      </trkpt>
      <trkpt lat="48.75153" lon="2.25282">
        <ele>162</ele>
        <time>2013-11-10T12:38:55Z</time>
      </trkpt>
      <trkpt lat="48.75108" lon="2.25326">
        <ele>158</ele>
        <time>2013-11-10T12:39:32Z</time>
      </trkpt>
      <trkpt lat="48.75118" lon="2.25392">
        <ele>156</ele>
        <time>2013-11-10T12:40:07Z</time>
      </trkpt>
      <trkpt lat="48.75123" lon="2.2541">
        <ele>154</ele>
        <time>2013-11-10T12:40:18Z</time>
      </trkpt>
      <trkpt lat="48.75125" lon="2.25414">
        <ele>154</ele>
        <time>2013-11-10T12:40:20Z</time>
      </trkpt>
      <trkpt lat="48.7514" lon="2.2542">
        <ele>154</ele>
        <time>2013-11-10T12:40:34Z</time>
      </trkpt>
      <trkpt lat="48.75151" lon="2.2542">
        <ele>154</ele>
        <time>2013-11-10T12:40:44Z</time>
      </trkpt>
      <trkpt lat="48.75201" lon="2.25395">
        <ele>161</ele>
        <time>2013-11-10T12:41:26Z</time>
      </trkpt>
      <trkpt lat="48.75202" lon="2.25398">
        <ele>160</ele>
        <time>2013-11-10T12:41:30Z</time>
      </trkpt>
      <trkpt lat="48.75201" lon="2.25414">
        <ele>159</ele>
        <time>2013-11-10T12:41:38Z</time>
      </trkpt>
      <trkpt lat="48.75207" lon="2.2546">
        <ele>157</ele>
        <time>2013-11-10T12:42:06Z</time>
      </trkpt>
      <trkpt lat="48.75222" lon="2.25494">
        <ele>157</ele>
        <time>2013-11-10T12:42:28Z</time>
      </trkpt>
      <trkpt lat="48.75242" lon="2.25555">
        <ele>161</ele>
        <time>2013-11-10T12:43:07Z</time>
      </trkpt>
      <trkpt lat="48.75237" lon="2.25629">
        <ele>161</ele>
        <time>2013-11-10T12:43:43Z</time>
      </trkpt>
      <trkpt lat="48.75225" lon="2.25729">
        <ele>159</ele>
        <time>2013-11-10T12:44:25Z</time>
      </trkpt>
      <trkpt lat="48.7522" lon="2.25771">
        <ele>158</ele>
        <time>2013-11-10T12:44:43Z</time>
      </trkpt>
      <trkpt lat="48.75218" lon="2.25816">
        <ele>157</ele>
        <time>2013-11-10T12:45:03Z</time>
      </trkpt>
      <trkpt lat="48.75222" lon="2.25826">
        <ele>157</ele>
        <time>2013-11-10T12:45:07Z</time>
      </trkpt>
      <trkpt lat="48.75245" lon="2.25878">
        <ele>159</ele>
        <time>2013-11-10T12:45:35Z</time>
      </trkpt>
      <trkpt lat="48.75291" lon="2.25946">
        <ele>156</ele>
        <time>2013-11-10T12:46:19Z</time>
      </trkpt>
      <trkpt lat="48.75304" lon="2.25974">
        <ele>155</ele>
        <time>2013-11-10T12:46:30Z</time>
      </trkpt>
      <trkpt lat="48.75341" lon="2.26068">
        <ele>153</ele>
        <time>2013-11-10T12:47:17Z</time>
      </trkpt>
      <trkpt lat="48.75394" lon="2.26094">
        <ele>151</ele>
        <time>2013-11-10T12:47:58Z</time>
      </trkpt>
      <trkpt lat="48.75448" lon="2.2614">
        <ele>146</ele>
        <time>2013-11-10T12:48:36Z</time>
      </trkpt>
      <trkpt lat="48.75472" lon="2.26187">
        <ele>143</ele>
        <time>2013-11-10T12:49:05Z</time>
      </trkpt>
      <trkpt lat="48.75483" lon="2.2621">
        <ele>141</ele>
        <time>2013-11-10T12:49:21Z</time>
      </trkpt>
      <trkpt lat="48.75499" lon="2.26235">
        <ele>139</ele>
        <time>2013-11-10T12:49:40Z</time>
      </trkpt>
      <trkpt lat="48.75509" lon="2.26247">
        <ele>138</ele>
        <time>2013-11-10T12:49:52Z</time>
      </trkpt>
      <trkpt lat="48.75519" lon="2.26259">
        <ele>134</ele>
        <time>2013-11-10T12:50:02Z</time>
      </trkpt>
      <trkpt lat="48.75546" lon="2.26283">
        <ele>128</ele>
        <time>2013-11-10T12:50:26Z</time>
      </trkpt>
      <trkpt lat="48.75562" lon="2.26301">
        <ele>124</ele>
        <time>2013-11-10T12:50:40Z</time>
      </trkpt>
      <trkpt lat="48.75606" lon="2.26343">
        <ele>120</ele>
        <time>2013-11-10T12:51:17Z</time>
      </trkpt>
      <trkpt lat="48.75629" lon="2.26306">
        <ele>122</ele>
        <time>2013-11-10T12:51:44Z</time>
      </trkpt>
      <trkpt lat="48.75634" lon="2.26275">
        <ele>125</ele>
        <time>2013-11-10T12:52:31Z</time>
      </trkpt>
      <trkpt lat="48.75635" lon="2.26242">
        <ele>127</ele>
        <time>2013-11-10T12:52:48Z</time>
      </trkpt>
      <trkpt lat="48.75643" lon="2.26201">
        <ele>129</ele>
        <time>2013-11-10T12:53:16Z</time>
      </trkpt>
      <trkpt lat="48.75646" lon="2.26179">
        <ele>131</ele>
        <time>2013-11-10T12:53:29Z</time>
      </trkpt>
      <trkpt lat="48.75658" lon="2.26118">
        <ele>136</ele>
        <time>2013-11-10T12:54:07Z</time>
      </trkpt>
      <trkpt lat="48.75665" lon="2.26086">
        <ele>139</ele>
        <time>2013-11-10T12:54:33Z</time>
      </trkpt>
      <trkpt lat="48.75668" lon="2.26054">
        <ele>144</ele>
        <time>2013-11-10T12:55:05Z</time>
      </trkpt>
      <trkpt lat="48.75676" lon="2.26021">
        <ele>148</ele>
        <time>2013-11-10T12:55:34Z</time>
      </trkpt>
      <trkpt lat="48.75681" lon="2.25992">
        <ele>153</ele>
        <time>2013-11-10T12:55:55Z</time>
      </trkpt>
      <trkpt lat="48.75684" lon="2.25966">
        <ele>156</ele>
        <time>2013-11-10T12:56:11Z</time>
      </trkpt>
      <trkpt lat="48.75689" lon="2.2594">
        <ele>158</ele>
        <time>2013-11-10T12:56:31Z</time>
      </trkpt>
      <trkpt lat="48.75702" lon="2.25875">
        <ele>163</ele>
        <time>2013-11-10T12:57:10Z</time>
      </trkpt>
      <trkpt lat="48.75712" lon="2.25809">
        <ele>165</ele>
        <time>2013-11-10T12:57:44Z</time>
      </trkpt>
      <trkpt lat="48.75714" lon="2.25783">
        <ele>165</ele>
        <time>2013-11-10T12:57:56Z</time>
      </trkpt>
      <trkpt lat="48.75725" lon="2.25713">
        <ele>166</ele>
        <time>2013-11-10T12:58:27Z</time>
      </trkpt>
      <trkpt lat="48.75741" lon="2.25638">
        <ele>167</ele>
        <time>2013-11-10T12:59:03Z</time>
      </trkpt>
      <trkpt lat="48.75768" lon="2.25506">
        <ele>167</ele>
        <time>2013-11-10T13:00:02Z</time>
      </trkpt>
      <trkpt lat="48.75786" lon="2.25386">
        <ele>167</ele>
        <time>2013-11-10T13:00:54Z</time>
      </trkpt>
      <trkpt lat="48.75808" lon="2.25239">
        <ele>167</ele>
        <time>2013-11-10T13:01:59Z</time>
      </trkpt>
      <trkpt lat="48.75809" lon="2.25231">
        <ele>167</ele>
        <time>2013-11-10T13:02:03Z</time>
      </trkpt>
      <trkpt lat="48.75808" lon="2.25219">
        <ele>167</ele>
        <time>2013-11-10T13:02:08Z</time>
      </trkpt>
      <trkpt lat="48.75805" lon="2.25191">
        <ele>167</ele>
        <time>2013-11-10T13:02:21Z</time>
      </trkpt>
      <trkpt lat="48.75829" lon="2.25144">
        <ele>167</ele>
        <time>2013-11-10T13:02:49Z</time>
      </trkpt>
      <trkpt lat="48.75846" lon="2.25045">
        <ele>167</ele>
        <time>2013-11-10T13:03:30Z</time>
      </trkpt>
      <trkpt lat="48.7587" lon="2.24888">
        <ele>168</ele>
        <time>2013-11-10T13:04:36Z</time>
      </trkpt>
      <trkpt lat="48.75884" lon="2.24818">
        <ele>168</ele>
        <time>2013-11-10T13:05:09Z</time>
      </trkpt>
      <trkpt lat="48.75925" lon="2.24771">
        <ele>168</ele>
        <time>2013-11-10T13:05:43Z</time>
      </trkpt>
      <trkpt lat="48.75979" lon="2.24746">
        <ele>168</ele>
        <time>2013-11-10T13:06:19Z</time>
      </trkpt>
      <trkpt lat="48.75996" lon="2.24731">
        <ele>168</ele>
        <time>2013-11-10T13:06:32Z</time>
      </trkpt>
      <trkpt lat="48.76006" lon="2.24721">
        <ele>168</ele>
        <time>2013-11-10T13:06:40Z</time>
      </trkpt>
      <trkpt lat="48.76045" lon="2.24705">
        <ele>169</ele>
        <time>2013-11-10T13:07:04Z</time>
      </trkpt>
      <trkpt lat="48.76095" lon="2.24668">
        <ele>168</ele>
        <time>2013-11-10T13:07:38Z</time>
      </trkpt>
      <trkpt lat="48.76118" lon="2.24649">
        <ele>168</ele>
        <time>2013-11-10T13:07:53Z</time>
      </trkpt>
      <trkpt lat="48.7615" lon="2.24625">
        <ele>168</ele>
        <time>2013-11-10T13:08:16Z</time>
      </trkpt>
      <trkpt lat="48.76165" lon="2.24608">
        <ele>168</ele>
        <time>2013-11-10T13:08:28Z</time>
      </trkpt>
      <trkpt lat="48.76247" lon="2.24542">
        <ele>167</ele>
        <time>2013-11-10T13:09:23Z</time>
      </trkpt>
      <trkpt lat="48.76254" lon="2.24537">
        <ele>167</ele>
        <time>2013-11-10T13:09:28Z</time>
      </trkpt>
      <trkpt lat="48.76277" lon="2.2458">
        <ele>167</ele>
        <time>2013-11-10T13:09:51Z</time>
      </trkpt>
      <trkpt lat="48.76288" lon="2.24617">
        <ele>167</ele>
        <time>2013-11-10T13:10:08Z</time>
      </trkpt>
      <trkpt lat="48.76312" lon="2.24699">
        <ele>165</ele>
        <time>2013-11-10T13:10:45Z</time>
      </trkpt>
      <trkpt lat="48.76357" lon="2.24857">
        <ele>165</ele>
        <time>2013-11-10T13:12:03Z</time>
      </trkpt>
      <trkpt lat="48.76356" lon="2.24859">
        <ele>165</ele>
        <time>2013-11-10T13:12:06Z</time>
      </trkpt>
      <trkpt lat="48.76317" lon="2.24881">
        <ele>163</ele>
        <time>2013-11-10T13:12:34Z</time>
      </trkpt>
      <trkpt lat="48.76287" lon="2.24905">
        <ele>162</ele>
        <time>2013-11-10T13:12:57Z</time>
      </trkpt>
      <trkpt lat="48.76263" lon="2.24928">
        <ele>161</ele>
        <time>2013-11-10T13:13:15Z</time>
      </trkpt>
      <trkpt lat="48.76275" lon="2.2496">
        <ele>160</ele>
        <time>2013-11-10T13:13:34Z</time>
      </trkpt>
      <trkpt lat="48.76292" lon="2.24994">
        <ele>161</ele>
        <time>2013-11-10T13:13:51Z</time>
      </trkpt>
      <trkpt lat="48.76291" lon="2.25057">
        <ele>161</ele>
        <time>2013-11-10T13:14:20Z</time>
      </trkpt>
      <trkpt lat="48.76281" lon="2.25135">
        <ele>160</ele>
        <time>2013-11-10T13:14:56Z</time>
      </trkpt>
      <trkpt lat="48.76262" lon="2.25158">
        <ele>158</ele>
        <time>2013-11-10T13:15:09Z</time>
      </trkpt>
      <trkpt lat="48.76249" lon="2.25175">
        <ele>157</ele>
        <time>2013-11-10T13:15:20Z</time>
      </trkpt>
      <trkpt lat="48.76224" lon="2.25231">
        <ele>155</ele>
        <time>2013-11-10T13:15:49Z</time>
      </trkpt>
      <trkpt lat="48.76222" lon="2.25286">
        <ele>153</ele>
        <time>2013-11-10T13:16:18Z</time>
      </trkpt>
      <trkpt lat="48.7622" lon="2.25301">
        <ele>152</ele>
        <time>2013-11-10T13:16:35Z</time>
      </trkpt>
      <trkpt lat="48.76226" lon="2.25317">
        <ele>152</ele>
        <time>2013-11-10T13:17:46Z</time>
      </trkpt>
      <trkpt lat="48.76232" lon="2.25329">
        <ele>153</ele>
        <time>2013-11-10T13:17:54Z</time>
      </trkpt>
      <trkpt lat="48.76286" lon="2.25377">
        <ele>156</ele>
        <time>2013-11-10T13:18:34Z</time>
      </trkpt>
      <trkpt lat="48.76318" lon="2.25396">
        <ele>158</ele>
        <time>2013-11-10T13:18:57Z</time>
      </trkpt>
      <trkpt lat="48.76336" lon="2.2541">
        <ele>159</ele>
        <time>2013-11-10T13:19:12Z</time>
      </trkpt>
      <trkpt lat="48.7635" lon="2.25439">
        <ele>159</ele>
        <time>2013-11-10T13:19:32Z</time>
      </trkpt>
      <trkpt lat="48.7635" lon="2.25474">
        <ele>158</ele>
        <time>2013-11-10T13:19:47Z</time>
      </trkpt>
      <trkpt lat="48.76359" lon="2.25556">
        <ele>158</ele>
        <time>2013-11-10T13:20:46Z</time>
      </trkpt>
      <trkpt lat="48.76372" lon="2.25607">
        <ele>156</ele>
        <time>2013-11-10T13:21:31Z</time>
      </trkpt>
      <trkpt lat="48.76391" lon="2.25624">
        <ele>155</ele>
        <time>2013-11-10T13:21:54Z</time>
      </trkpt>
      <trkpt lat="48.76396" lon="2.25603">
        <ele>157</ele>
        <time>2013-11-10T13:22:04Z</time>
      </trkpt>
      <trkpt lat="48.76398" lon="2.25587">
        <ele>158</ele>
        <time>2013-11-10T13:22:22Z</time>
      </trkpt>
      <trkpt lat="48.76397" lon="2.25592">
        <ele>158</ele>
        <time>2013-11-10T13:22:26Z</time>
      </trkpt>
      <trkpt lat="48.76411" lon="2.25612">
        <ele>156</ele>
        <time>2013-11-10T13:23:04Z</time>
      </trkpt>
      <trkpt lat="48.76429" lon="2.25621">
        <ele>152</ele>
        <time>2013-11-10T13:23:31Z</time>
      </trkpt>
      <trkpt lat="48.76434" lon="2.25627">
        <ele>151</ele>
        <time>2013-11-10T13:23:40Z</time>
      </trkpt>
      <trkpt lat="48.76439" lon="2.25646">
        <ele>149</ele>
        <time>2013-11-10T13:23:51Z</time>
      </trkpt>
      <trkpt lat="48.76462" lon="2.25702">
        <ele>143</ele>
        <time>2013-11-10T13:24:26Z</time>
      </trkpt>
      <trkpt lat="48.76471" lon="2.2572">
        <ele>142</ele>
        <time>2013-11-10T13:24:36Z</time>
      </trkpt>
      <trkpt lat="48.76472" lon="2.25742">
        <ele>141</ele>
        <time>2013-11-10T13:24:50Z</time>
      </trkpt>
      <trkpt lat="48.76484" lon="2.25765">
        <ele>140</ele>
        <time>2013-11-10T13:25:03Z</time>
      </trkpt>
      <trkpt lat="48.7649" lon="2.25774">
        <ele>140</ele>
        <time>2013-11-10T13:25:09Z</time>
      </trkpt>
      <trkpt lat="48.7649" lon="2.25807">
        <ele>140</ele>
        <time>2013-11-10T13:25:24Z</time>
      </trkpt>
      <trkpt lat="48.76491" lon="2.2582">
        <ele>141</ele>
        <time>2013-11-10T13:25:30Z</time>
      </trkpt>
      <trkpt lat="48.76499" lon="2.25835">
        <ele>142</ele>
        <time>2013-11-10T13:25:42Z</time>
      </trkpt>
      <trkpt lat="48.76537" lon="2.25834">
        <ele>145</ele>
        <time>2013-11-10T13:26:11Z</time>
      </trkpt>
      <trkpt lat="48.76556" lon="2.25839">
        <ele>148</ele>
        <time>2013-11-10T13:26:28Z</time>
      </trkpt>
      <trkpt lat="48.7656" lon="2.25843">
        <ele>149</ele>
        <time>2013-11-10T13:26:31Z</time>
      </trkpt>
      <trkpt lat="48.76573" lon="2.25878">
        <ele>152</ele>
        <time>2013-11-10T13:26:52Z</time>
      </trkpt>
      <trkpt lat="48.76573" lon="2.2599">
        <ele>151</ele>
        <time>2013-11-10T13:27:40Z</time>
      </trkpt>
      <trkpt lat="48.76585" lon="2.26046">
        <ele>152</ele>
        <time>2013-11-10T13:28:17Z</time>
      </trkpt>
      <trkpt lat="48.76586" lon="2.26046">
        <ele>152</ele>
        <time>2013-11-10T13:28:18Z</time>
      </trkpt>
      <trkpt lat="48.76604" lon="2.2606">
        <ele>155</ele>
        <time>2013-11-10T13:28:44Z</time>
      </trkpt>
      <trkpt lat="48.76613" lon="2.26049">
        <ele>156</ele>
        <time>2013-11-10T13:29:02Z</time>
      </trkpt>
      <trkpt lat="48.76629" lon="2.26056">
        <ele>158</ele>
        <time>2013-11-10T13:29:15Z</time>
      </trkpt>
      <trkpt lat="48.76686" lon="2.26064">
        <ele>158</ele>
        <time>2013-11-10T13:30:19Z</time>
      </trkpt>
      <trkpt lat="48.767" lon="2.26066">
        <ele>158</ele>
        <time>2013-11-10T13:30:32Z</time>
      </trkpt>
      <trkpt lat="48.76712" lon="2.26143">
        <ele>157</ele>
        <time>2013-11-10T13:31:17Z</time>
      </trkpt>
      <trkpt lat="48.7674" lon="2.26223">
        <ele>153</ele>
        <time>2013-11-10T13:31:56Z</time>
      </trkpt>
      <trkpt lat="48.76747" lon="2.26229">
        <ele>152</ele>
        <time>2013-11-10T13:32:01Z</time>
      </trkpt>
      <trkpt lat="48.7677" lon="2.26235">
        <ele>150</ele>
        <time>2013-11-10T13:32:18Z</time>
      </trkpt>
      <trkpt lat="48.76795" lon="2.26274">
        <ele>146</ele>
        <time>2013-11-10T13:32:42Z</time>
      </trkpt>
      <trkpt lat="48.76826" lon="2.2627">
        <ele>142</ele>
        <time>2013-11-10T13:33:06Z</time>
      </trkpt>
      <trkpt lat="48.76832" lon="2.26239">
        <ele>142</ele>
        <time>2013-11-10T13:33:21Z</time>
      </trkpt>
      <trkpt lat="48.76826" lon="2.26198">
        <ele>142</ele>
        <time>2013-11-10T13:33:38Z</time>
      </trkpt>
      <trkpt lat="48.7682" lon="2.26153">
        <ele>140</ele>
        <time>2013-11-10T13:33:57Z</time>
      </trkpt>
      <trkpt lat="48.76839" lon="2.2617">
        <ele>139</ele>
        <time>2013-11-10T13:34:20Z</time>
      </trkpt>
      <trkpt lat="48.7684" lon="2.26172">
        <ele>139</ele>
        <time>2013-11-10T13:34:21Z</time>
      </trkpt>
      <trkpt lat="48.76861" lon="2.26196">
        <ele>138</ele>
        <time>2013-11-10T13:34:39Z</time>
      </trkpt>
      <trkpt lat="48.76925" lon="2.26165">
        <ele>131</ele>
        <time>2013-11-10T13:35:27Z</time>
      </trkpt>
      <trkpt lat="48.76937" lon="2.26134">
        <ele>130</ele>
        <time>2013-11-10T13:35:43Z</time>
      </trkpt>
      <trkpt lat="48.76942" lon="2.26043">
        <ele>126</ele>
        <time>2013-11-10T13:36:25Z</time>
      </trkpt>
      <trkpt lat="48.7698" lon="2.26051">
        <ele>123</ele>
        <time>2013-11-10T13:36:53Z</time>
      </trkpt>
      <trkpt lat="48.76981" lon="2.26053">
        <ele>123</ele>
        <time>2013-11-10T13:36:55Z</time>
      </trkpt>
      <trkpt lat="48.76995" lon="2.2606">
        <ele>122</ele>
        <time>2013-11-10T13:37:22Z</time>
      </trkpt>
      <trkpt lat="48.7701" lon="2.26059">
        <ele>121</ele>
        <time>2013-11-10T13:37:33Z</time>
      </trkpt>
      <trkpt lat="48.77057" lon="2.26036">
        <ele>125</ele>
        <time>2013-11-10T13:38:08Z</time>
      </trkpt>
      <trkpt lat="48.7707" lon="2.26041">
        <ele>126</ele>
        <time>2013-11-10T13:38:18Z</time>
      </trkpt>
      <trkpt lat="48.77094" lon="2.26051">
        <ele>130</ele>
        <time>2013-11-10T13:38:34Z</time>
      </trkpt>
      <trkpt lat="48.77119" lon="2.26064">
        <ele>133</ele>
        <time>2013-11-10T13:38:54Z</time>
      </trkpt>
      <trkpt lat="48.77148" lon="2.26068">
        <ele>136</ele>
        <time>2013-11-10T13:39:18Z</time>
      </trkpt>
      <trkpt lat="48.77218" lon="2.26116">
        <ele>136</ele>
        <time>2013-11-10T13:40:11Z</time>
      </trkpt>
      <trkpt lat="48.77236" lon="2.26147">
        <ele>133</ele>
        <time>2013-11-10T13:40:28Z</time>
      </trkpt>
      <trkpt lat="48.77262" lon="2.26158">
        <ele>132</ele>
        <time>2013-11-10T13:40:52Z</time>
      </trkpt>
      <trkpt lat="48.77268" lon="2.26168">
        <ele>131</ele>
        <time>2013-11-10T13:41:04Z</time>
      </trkpt>
      <trkpt lat="48.77286" lon="2.26191">
        <ele>129</ele>
        <time>2013-11-10T13:41:44Z</time>
      </trkpt>
      <trkpt lat="48.77294" lon="2.2619">
        <ele>129</ele>
        <time>2013-11-10T13:43:04Z</time>
      </trkpt>
      <trkpt lat="48.77303" lon="2.26205">
        <ele>128</ele>
        <time>2013-11-10T13:44:21Z</time>
      </trkpt>
      <trkpt lat="48.77301" lon="2.26211">
        <ele>128</ele>
        <time>2013-11-10T13:44:25Z</time>
      </trkpt>
      <trkpt lat="48.77316" lon="2.26297">
        <ele>127</ele>
        <time>2013-11-10T13:45:15Z</time>
      </trkpt>
      <trkpt lat="48.77358" lon="2.26356">
        <ele>131</ele>
        <time>2013-11-10T13:45:55Z</time>
      </trkpt>
      <trkpt lat="48.77377" lon="2.26371">
        <ele>132</ele>
        <time>2013-11-10T13:46:10Z</time>
      </trkpt>
      <trkpt lat="48.77405" lon="2.26373">
        <ele>134</ele>
        <time>2013-11-10T13:46:29Z</time>
      </trkpt>
      <trkpt lat="48.77415" lon="2.26375">
        <ele>134</ele>
        <time>2013-11-10T13:46:36Z</time>
      </trkpt>
      <trkpt lat="48.77452" lon="2.2641">
        <ele>135</ele>
        <time>2013-11-10T13:47:03Z</time>
      </trkpt>
      <trkpt lat="48.77458" lon="2.26457">
        <ele>132</ele>
        <time>2013-11-10T13:47:26Z</time>
      </trkpt>
      <trkpt lat="48.77457" lon="2.26492">
        <ele>127</ele>
        <time>2013-11-10T13:47:43Z</time>
      </trkpt>
      <trkpt lat="48.77457" lon="2.26497">
        <ele>127</ele>
        <time>2013-11-10T13:47:45Z</time>
      </trkpt>
      <trkpt lat="48.77459" lon="2.26521">
        <ele>125</ele>
        <time>2013-11-10T13:47:54Z</time>
      </trkpt>
      <trkpt lat="48.77438" lon="2.26581">
        <ele>121</ele>
        <time>2013-11-10T13:48:21Z</time>
      </trkpt>
      <trkpt lat="48.77407" lon="2.26617">
        <ele>120</ele>
        <time>2013-11-10T13:48:47Z</time>
      </trkpt>
      <trkpt lat="48.77374" lon="2.26664">
        <ele>116</ele>
        <time>2013-11-10T13:49:16Z</time>
      </trkpt>
      <trkpt lat="48.77362" lon="2.26691">
        <ele>114</ele>
        <time>2013-11-10T13:49:29Z</time>
      </trkpt>
      <trkpt lat="48.77344" lon="2.26739">
        <ele>110</ele>
        <time>2013-11-10T13:49:52Z</time>
      </trkpt>
      <trkpt lat="48.77335" lon="2.26762">
        <ele>108</ele>
        <time>2013-11-10T13:50:34Z</time>
      </trkpt>
      <trkpt lat="48.77306" lon="2.26796">
        <ele>105</ele>
        <time>2013-11-10T13:51:09Z</time>
      </trkpt>
      <trkpt lat="48.77297" lon="2.26807">
        <ele>104</ele>
        <time>2013-11-10T13:51:18Z</time>
      </trkpt>
      <trkpt lat="48.77318" lon="2.26853">
        <ele>103</ele>
        <time>2013-11-10T13:51:44Z</time>
      </trkpt>
      <trkpt lat="48.77366" lon="2.26911">
        <ele>101</ele>
        <time>2013-11-10T13:52:33Z</time>
      </trkpt>
      <trkpt lat="48.77358" lon="2.26935">
        <ele>99</ele>
        <time>2013-11-10T13:52:48Z</time>
      </trkpt>
      <trkpt lat="48.77379" lon="2.26974">
        <ele>98</ele>
        <time>2013-11-10T13:53:09Z</time>
      </trkpt>
      <trkpt lat="48.7739" lon="2.26993">
        <ele>97</ele>
        <time>2013-11-10T13:53:20Z</time>
      </trkpt>
      <trkpt lat="48.77355" lon="2.27028">
        <ele>95</ele>
        <time>2013-11-10T13:53:51Z</time>
      </trkpt>
      <trkpt lat="48.77304" lon="2.27146">
        <ele>92</ele>
        <time>2013-11-10T13:54:52Z</time>
      </trkpt>
      <trkpt lat="48.77291" lon="2.27211">
        <ele>90</ele>
        <time>2013-11-10T13:55:20Z</time>
      </trkpt>
      <trkpt lat="48.77281" lon="2.27311">
        <ele>88</ele>
        <time>2013-11-10T13:56:02Z</time>
      </trkpt>
      <trkpt lat="48.77289" lon="2.274">
        <ele>88</ele>
        <time>2013-11-10T13:56:40Z</time>
      </trkpt>
      <trkpt lat="48.77291" lon="2.2745">
        <ele>86</ele>
        <time>2013-11-10T13:57:00Z</time>
      </trkpt>
      <trkpt lat="48.7729" lon="2.2749">
        <ele>84</ele>
        <time>2013-11-10T13:57:18Z</time>
      </trkpt>
      <trkpt lat="48.77284" lon="2.27541">
        <ele>83</ele>
        <time>2013-11-10T13:57:39Z</time>
      </trkpt>
      <trkpt lat="48.77278" lon="2.27555">
        <ele>83</ele>
        <time>2013-11-10T13:57:45Z</time>
      </trkpt>
      <trkpt lat="48.77276" lon="2.27635">
        <ele>82</ele>
        <time>2013-11-10T13:58:17Z</time>
      </trkpt>
      <trkpt lat="48.77282" lon="2.27809">
        <ele>81</ele>
        <time>2013-11-10T13:59:28Z</time>
      </trkpt>
      <trkpt lat="48.77293" lon="2.27937">
        <ele>80</ele>
        <time>2013-11-10T14:00:22Z</time>
      </trkpt>
      <trkpt lat="48.77308" lon="2.28012">
        <ele>79</ele>
        <time>2013-11-10T14:00:52Z</time>
      </trkpt>
      <trkpt lat="48.77311" lon="2.28028">
        <ele>79</ele>
        <time>2013-11-10T14:00:59Z</time>
      </trkpt>
      <trkpt lat="48.77316" lon="2.28063">
        <ele>78</ele>
        <time>2013-11-10T14:01:15Z</time>
      </trkpt>
      <trkpt lat="48.77298" lon="2.28108">
        <ele>79</ele>
        <time>2013-11-10T14:01:40Z</time>
      </trkpt>
      <trkpt lat="48.7728" lon="2.28117">
        <ele>81</ele>
        <time>2013-11-10T14:01:52Z</time>
      </trkpt>
      <trkpt lat="48.77271" lon="2.28119">
        <ele>82</ele>
        <time>2013-11-10T14:01:59Z</time>
      </trkpt>
      <trkpt lat="48.77282" lon="2.2817">
        <ele>81</ele>
        <time>2013-11-10T14:02:28Z</time>
      </trkpt>
      <trkpt lat="48.77303" lon="2.28214">
        <ele>79</ele>
        <time>2013-11-10T14:02:50Z</time>
      </trkpt>
      <trkpt lat="48.77352" lon="2.28306">
        <ele>75</ele>
        <time>2013-11-10T14:03:39Z</time>
      </trkpt>
      <trkpt lat="48.77401" lon="2.28397">
        <ele>72</ele>
        <time>2013-11-10T14:04:26Z</time>
      </trkpt>
      <trkpt lat="48.77428" lon="2.28447">
        <ele>71</ele>
        <time>2013-11-10T14:04:54Z</time>
      </trkpt>
      <trkpt lat="48.77388" lon="2.28503">
        <ele>71</ele>
        <time>2013-11-10T14:05:29Z</time>
      </trkpt>
      <trkpt lat="48.77344" lon="2.28512">
        <ele>73</ele>
        <time>2013-11-10T14:05:58Z</time>
      </trkpt>
      <trkpt lat="48.77329" lon="2.28513">
        <ele>74</ele>
        <time>2013-11-10T14:06:09Z</time>
      </trkpt>
      <trkpt lat="48.77316" lon="2.28522">
        <ele>74</ele>
        <time>2013-11-10T14:06:20Z</time>
      </trkpt>
      <trkpt lat="48.77292" lon="2.28534">
        <ele>75</ele>
        <time>2013-11-10T14:06:38Z</time>
      </trkpt>
      <trkpt lat="48.77279" lon="2.28594">
        <ele>73</ele>
        <time>2013-11-10T14:07:16Z</time>
      </trkpt>
      <trkpt lat="48.77271" lon="2.28643">
        <ele>72</ele>
        <time>2013-11-10T14:07:37Z</time>
      </trkpt>
      <trkpt lat="48.77303" lon="2.28679">
        <ele>69</ele>
        <time>2013-11-10T14:08:04Z</time>
      </trkpt>
      <trkpt lat="48.77305" lon="2.28679">
        <ele>69</ele>
        <time>2013-11-10T14:08:05Z</time>
      </trkpt>
      <trkpt lat="48.77317" lon="2.28735">
        <ele>67</ele>
        <time>2013-11-10T14:08:31Z</time>
      </trkpt>
      <trkpt lat="48.77317" lon="2.28737">
        <ele>66</ele>
        <time>2013-11-10T14:08:32Z</time>
      </trkpt>
      <trkpt lat="48.77333" lon="2.28812">
        <ele>65</ele>
        <time>2013-11-10T14:09:08Z</time>
      </trkpt>
      <trkpt lat="48.77342" lon="2.28876">
        <ele>65</ele>
        <time>2013-11-10T14:09:34Z</time>
      </trkpt>
      <trkpt lat="48.7731" lon="2.28917">
        <ele>64</ele>
        <time>2013-11-10T14:10:00Z</time>
      </trkpt>
      <trkpt lat="48.77317" lon="2.28996">
        <ele>63</ele>
        <time>2013-11-10T14:10:34Z</time>
      </trkpt>
      <trkpt lat="48.77324" lon="2.29032">
        <ele>63</ele>
        <time>2013-11-10T14:10:49Z</time>
      </trkpt>
      <trkpt lat="48.77345" lon="2.29168">
        <ele>64</ele>
        <time>2013-11-10T14:11:49Z</time>
      </trkpt>
      <trkpt lat="48.77345" lon="2.2917">
        <ele>64</ele>
        <time>2013-11-10T14:11:50Z</time>
      </trkpt>
      <trkpt lat="48.77355" lon="2.29249">
        <ele>64</ele>
        <time>2013-11-10T14:12:26Z</time>
      </trkpt>
      <trkpt lat="48.77354" lon="2.2925">
        <ele>64</ele>
        <time>2013-11-10T14:13:04Z</time>
      </trkpt>
      <trkpt lat="48.77357" lon="2.29257">
        <ele>64</ele>
        <time>2013-11-10T14:14:34Z</time>
      </trkpt>
      <trkpt lat="48.77372" lon="2.29348">
        <ele>65</ele>
        <time>2013-11-10T14:15:14Z</time>
      </trkpt>
      <trkpt lat="48.7739" lon="2.29465">
        <ele>69</ele>
        <time>2013-11-10T14:16:07Z</time>
      </trkpt>
      <trkpt lat="48.77404" lon="2.29525">
        <ele>73</ele>
        <time>2013-11-10T14:16:35Z</time>
      </trkpt>
      <trkpt lat="48.7741" lon="2.29554">
        <ele>75</ele>
        <time>2013-11-10T14:16:51Z</time>
      </trkpt>
      <trkpt lat="48.7741" lon="2.29565">
        <ele>76</ele>
        <time>2013-11-10T14:17:44Z</time>
      </trkpt>
      <trkpt lat="48.7741" lon="2.29567">
        <ele>76</ele>
        <time>2013-11-10T14:18:08Z</time>
      </trkpt>
      <trkpt lat="48.77437" lon="2.29608">
        <ele>78</ele>
        <time>2013-11-10T14:18:46Z</time>
      </trkpt>
      <trkpt lat="48.77453" lon="2.29706">
        <ele>81</ele>
        <time>2013-11-10T14:19:28Z</time>
      </trkpt>
      <trkpt lat="48.77464" lon="2.29784">
        <ele>83</ele>
        <time>2013-11-10T14:20:04Z</time>
      </trkpt>
      <trkpt lat="48.77451" lon="2.2979">
        <ele>83</ele>
        <time>2013-11-10T14:20:15Z</time>
      </trkpt>
      <trkpt lat="48.77406" lon="2.29807">
        <ele>82</ele>
        <time>2013-11-10T14:21:16Z</time>
      </trkpt>
      <trkpt lat="48.77407" lon="2.29806">
        <ele>82</ele>
        <time>2013-11-10T14:21:35Z</time>
      </trkpt>
      <trkpt lat="48.77427" lon="2.29809">
        <ele>82</ele>
        <time>2013-11-10T14:22:07Z</time>
      </trkpt>
      <trkpt lat="48.77426" lon="2.29811">
        <ele>82</ele>
        <time>2013-11-10T14:22:10Z</time>
      </trkpt>
      <trkpt lat="48.77385" lon="2.29824">
        <ele>82</ele>
        <time>2013-11-10T14:22:40Z</time>
      </trkpt>
      <trkpt lat="48.77344" lon="2.29836">
        <ele>81</ele>
        <time>2013-11-10T14:23:19Z</time>
      </trkpt>
      <trkpt lat="48.77327" lon="2.29847">
        <ele>82</ele>
        <time>2013-11-10T14:23:51Z</time>
      </trkpt>
      <trkpt lat="48.7732" lon="2.29885">
        <ele>83</ele>
        <time>2013-11-10T14:24:15Z</time>
      </trkpt>
      <trkpt lat="48.77293" lon="2.29944">
        <ele>85</ele>
        <time>2013-11-10T14:24:52Z</time>
      </trkpt>
      <trkpt lat="48.77196" lon="2.30011">
        <ele>84</ele>
        <time>2013-11-10T14:25:57Z</time>
      </trkpt>
      <trkpt lat="48.77128" lon="2.30062">
        <ele>81</ele>
        <time>2013-11-10T14:26:46Z</time>
      </trkpt>
      <trkpt lat="48.77093" lon="2.30079">
        <ele>78</ele>
        <time>2013-11-10T14:27:13Z</time>
      </trkpt>
      <trkpt lat="48.77093" lon="2.30088">
        <ele>78</ele>
        <time>2013-11-10T14:27:17Z</time>
      </trkpt>
      <trkpt lat="48.77088" lon="2.30106">
        <ele>78</ele>
        <time>2013-11-10T14:27:38Z</time>
      </trkpt>
      <trkpt lat="48.77084" lon="2.30141">
        <ele>78</ele>
        <time>2013-11-10T14:27:56Z</time>
      </trkpt>
      <trkpt lat="48.77039" lon="2.30158">
        <ele>71</ele>
        <time>2013-11-10T14:28:27Z</time>
      </trkpt>
      <trkpt lat="48.76995" lon="2.30173">
        <ele>65</ele>
        <time>2013-11-10T14:28:56Z</time>
      </trkpt>
      <trkpt lat="48.76967" lon="2.30182">
        <ele>61</ele>
        <time>2013-11-10T14:29:15Z</time>
      </trkpt>
      <trkpt lat="48.76938" lon="2.302">
        <ele>59</ele>
        <time>2013-11-10T14:29:37Z</time>
      </trkpt>
      <trkpt lat="48.76916" lon="2.30267">
        <ele>59</ele>
        <time>2013-11-10T14:30:10Z</time>
      </trkpt>
      <trkpt lat="48.76873" lon="2.30294">
        <ele>57</ele>
        <time>2013-11-10T14:30:39Z</time>
      </trkpt>
      <trkpt lat="48.76822" lon="2.30312">
        <ele>57</ele>
        <time>2013-11-10T14:31:11Z</time>
      </trkpt>
      <trkpt lat="48.76761" lon="2.30268">
        <ele>56</ele>
        <time>2013-11-10T14:31:54Z</time>
      </trkpt>
      <trkpt lat="48.7674" lon="2.30276">
        <ele>57</ele>
        <time>2013-11-10T14:32:10Z</time>
      </trkpt>
      <trkpt lat="48.7673" lon="2.30281">
        <ele>58</ele>
        <time>2013-11-10T14:32:18Z</time>
      </trkpt>
      <trkpt lat="48.76691" lon="2.30286">
        <ele>59</ele>
        <time>2013-11-10T14:32:47Z</time>
      </trkpt>
      <trkpt lat="48.76651" lon="2.30297">
        <ele>61</ele>
        <time>2013-11-10T14:33:15Z</time>
      </trkpt>
      <trkpt lat="48.76622" lon="2.30319">
        <ele>63</ele>
        <time>2013-11-10T14:33:33Z</time>
      </trkpt>
      <trkpt lat="48.76586" lon="2.30323">
        <ele>65</ele>
        <time>2013-11-10T14:33:54Z</time>
      </trkpt>
      <trkpt lat="48.76568" lon="2.30325">
        <ele>65</ele>
        <time>2013-11-10T14:34:06Z</time>
      </trkpt>
      <trkpt lat="48.76554" lon="2.30273">
        <ele>65</ele>
        <time>2013-11-10T14:34:29Z</time>
      </trkpt>
      <trkpt lat="48.76546" lon="2.30229">
        <ele>63</ele>
        <time>2013-11-10T14:34:49Z</time>
      </trkpt>
      <trkpt lat="48.76529" lon="2.30139">
        <ele>58</ele>
        <time>2013-11-10T14:35:26Z</time>
      </trkpt>
      <trkpt lat="48.76518" lon="2.30075">
        <ele>57</ele>
        <time>2013-11-10T14:35:53Z</time>
      </trkpt>
      <trkpt lat="48.76481" lon="2.30085">
        <ele>57</ele>
        <time>2013-11-10T14:36:17Z</time>
      </trkpt>
      <trkpt lat="48.76373" lon="2.30117">
        <ele>56</ele>
        <time>2013-11-10T14:37:25Z</time>
      </trkpt>
      <trkpt lat="48.763" lon="2.30078">
        <ele>56</ele>
        <time>2013-11-10T14:38:18Z</time>
      </trkpt>
      <trkpt lat="48.76281" lon="2.3007">
        <ele>56</ele>
        <time>2013-11-10T14:38:32Z</time>
      </trkpt>
      <trkpt lat="48.76267" lon="2.29969">
        <ele>56</ele>
        <time>2013-11-10T14:39:10Z</time>
      </trkpt>
      <trkpt lat="48.76292" lon="2.29957">
        <ele>56</ele>
        <time>2013-11-10T14:39:31Z</time>
      </trkpt>
      <trkpt lat="48.76331" lon="2.2994">
        <ele>56</ele>
        <time>2013-11-10T14:39:58Z</time>
      </trkpt>
      <trkpt lat="48.76338" lon="2.29922">
        <ele>56</ele>
        <time>2013-11-10T14:40:08Z</time>
      </trkpt>
      <trkpt lat="48.76387" lon="2.29806">
        <ele>58</ele>
        <time>2013-11-10T14:41:07Z</time>
      </trkpt>
      <trkpt lat="48.76398" lon="2.2978">
        <ele>59</ele>
        <time>2013-11-10T14:41:20Z</time>
      </trkpt>
      <trkpt lat="48.76422" lon="2.297">
        <ele>60</ele>
        <time>2013-11-10T14:41:57Z</time>
      </trkpt>
      <trkpt lat="48.76451" lon="2.29611">
        <ele>60</ele>
        <time>2013-11-10T14:42:42Z</time>
      </trkpt>
      <trkpt lat="48.76493" lon="2.29507">
        <ele>60</ele>
        <time>2013-11-10T14:43:33Z</time>
      </trkpt>
      <trkpt lat="48.76497" lon="2.29488">
        <ele>60</ele>
        <time>2013-11-10T14:43:41Z</time>
      </trkpt>
      <trkpt lat="48.76507" lon="2.29448">
        <ele>61</ele>
        <time>2013-11-10T14:44:00Z</time>
      </trkpt>
      <trkpt lat="48.7653" lon="2.2939">
        <ele>61</ele>
        <time>2013-11-10T14:44:28Z</time>
      </trkpt>
      <trkpt lat="48.76564" lon="2.293">
        <ele>62</ele>
        <time>2013-11-10T14:45:14Z</time>
      </trkpt>
      <trkpt lat="48.76567" lon="2.2929">
        <ele>63</ele>
        <time>2013-11-10T14:45:19Z</time>
      </trkpt>
      <trkpt lat="48.76571" lon="2.29284">
        <ele>63</ele>
        <time>2013-11-10T14:45:23Z</time>
      </trkpt>
      <trkpt lat="48.76584" lon="2.29264">
        <ele>63</ele>
        <time>2013-11-10T14:45:37Z</time>
      </trkpt>
      <trkpt lat="48.76605" lon="2.29181">
        <ele>66</ele>
        <time>2013-11-10T14:46:17Z</time>
      </trkpt>
      <trkpt lat="48.76628" lon="2.29155">
        <ele>67</ele>
        <time>2013-11-10T14:46:40Z</time>
      </trkpt>
      <trkpt lat="48.76642" lon="2.29138">
        <ele>67</ele>
        <time>2013-11-10T14:46:51Z</time>
      </trkpt>
      <trkpt lat="48.76643" lon="2.29129">
        <ele>68</ele>
        <time>2013-11-10T14:46:56Z</time>
      </trkpt>
      <trkpt lat="48.76638" lon="2.29056">
        <ele>69</ele>
        <time>2013-11-10T14:47:35Z</time>
      </trkpt>
      <trkpt lat="48.76651" lon="2.28974">
        <ele>72</ele>
        <time>2013-11-10T14:48:17Z</time>
      </trkpt>
      <trkpt lat="48.76639" lon="2.28881">
        <ele>76</ele>
        <time>2013-11-10T14:49:03Z</time>
      </trkpt>
      <trkpt lat="48.76623" lon="2.28788">
        <ele>80</ele>
        <time>2013-11-10T14:49:47Z</time>
      </trkpt>
      <trkpt lat="48.76606" lon="2.28691">
        <ele>83</ele>
        <time>2013-11-10T14:50:31Z</time>
      </trkpt>
      <trkpt lat="48.76595" lon="2.28634">
        <ele>85</ele>
        <time>2013-11-10T14:50:56Z</time>
      </trkpt>
      <trkpt lat="48.76585" lon="2.2848">
        <ele>88</ele>
        <time>2013-11-10T14:52:04Z</time>
      </trkpt>
      <trkpt lat="48.76557" lon="2.28499">
        <ele>87</ele>
        <time>2013-11-10T14:52:26Z</time>
      </trkpt>
      <trkpt lat="48.7649" lon="2.28505">
        <ele>82</ele>
        <time>2013-11-10T14:53:08Z</time>
      </trkpt>
      <trkpt lat="48.76409" lon="2.28491">
        <ele>78</ele>
        <time>2013-11-10T14:53:58Z</time>
      </trkpt>
      <trkpt lat="48.76324" lon="2.28493">
        <ele>81</ele>
        <time>2013-11-10T14:54:50Z</time>
      </trkpt>
      <trkpt lat="48.76237" lon="2.28505">
        <ele>84</ele>
        <time>2013-11-10T14:55:48Z</time>
      </trkpt>
      <trkpt lat="48.76203" lon="2.28509">
        <ele>85</ele>
        <time>2013-11-10T14:56:10Z</time>
      </trkpt>
      <trkpt lat="48.76165" lon="2.28491">
        <ele>87</ele>
        <time>2013-11-10T14:56:35Z</time>
      </trkpt>
      <trkpt lat="48.76141" lon="2.28483">
        <ele>88</ele>
        <time>2013-11-10T14:56:51Z</time>
      </trkpt>
      <trkpt lat="48.76101" lon="2.28493">
        <ele>89</ele>
        <time>2013-11-10T14:57:18Z</time>
      </trkpt>
      <trkpt lat="48.76079" lon="2.28507">
        <ele>89</ele>
        <time>2013-11-10T14:57:34Z</time>
      </trkpt>
      <trkpt lat="48.76019" lon="2.2848">
        <ele>91</ele>
        <time>2013-11-10T14:58:13Z</time>
      </trkpt>
      <trkpt lat="48.76006" lon="2.28461">
        <ele>91</ele>
        <time>2013-11-10T14:58:33Z</time>
      </trkpt>
      <trkpt lat="48.76011" lon="2.28455">
        <ele>91</ele>
        <time>2013-11-10T14:58:41Z</time>
      </trkpt>
      <trkpt lat="48.75941" lon="2.28458">
        <ele>91</ele>
        <time>2013-11-10T14:59:28Z</time>
      </trkpt>
      <trkpt lat="48.7592" lon="2.28459">
        <ele>91</ele>
        <time>2013-11-10T14:59:42Z</time>
      </trkpt>
      <trkpt lat="48.75792" lon="2.28442">
        <ele>92</ele>
        <time>2013-11-10T15:01:03Z</time>
      </trkpt>
      <trkpt lat="48.75686" lon="2.2842">
        <ele>90</ele>
        <time>2013-11-10T15:02:09Z</time>
      </trkpt>
      <trkpt lat="48.75574" lon="2.28384">
        <ele>90</ele>
        <time>2013-11-10T15:03:24Z</time>
      </trkpt>
      <trkpt lat="48.7552" lon="2.28376">
        <ele>89</ele>
        <time>2013-11-10T15:03:59Z</time>
      </trkpt>
      <trkpt lat="48.7548" lon="2.28353">
        <ele>89</ele>
        <time>2013-11-10T15:04:27Z</time>
      </trkpt>
      <trkpt lat="48.75402" lon="2.28318">
        <ele>89</ele>
        <time>2013-11-10T15:05:23Z</time>
      </trkpt>
      <trkpt lat="48.75368" lon="2.283">
        <ele>88</ele>
        <time>2013-11-10T15:05:48Z</time>
      </trkpt>
      <trkpt lat="48.75297" lon="2.28266">
        <ele>86</ele>
        <time>2013-11-10T15:06:36Z</time>
      </trkpt>
      <trkpt lat="48.75219" lon="2.28251">
        <ele>82</ele>
        <time>2013-11-10T15:07:24Z</time>
      </trkpt>
      <trkpt lat="48.75151" lon="2.2822">
        <ele>78</ele>
        <time>2013-11-10T15:08:09Z</time>
      </trkpt>
      <trkpt lat="48.75124" lon="2.28224">
        <ele>77</ele>
        <time>2013-11-10T15:09:53Z</time>
      </trkpt>
      <trkpt lat="48.7513" lon="2.28204">
        <ele>76</ele>
        <time>2013-11-10T15:10:03Z</time>
      </trkpt>
      <trkpt lat="48.75135" lon="2.28175">
        <ele>75</ele>
        <time>2013-11-10T15:10:18Z</time>
      </trkpt>
      <trkpt lat="48.75105" lon="2.28136">
        <ele>72</ele>
        <time>2013-11-10T15:10:47Z</time>
      </trkpt>
      <trkpt lat="48.7506" lon="2.28111">
        <ele>73</ele>
        <time>2013-11-10T15:11:44Z</time>
      </trkpt>
      <trkpt lat="48.75021" lon="2.28085">
        <ele>74</ele>
        <time>2013-11-10T15:12:20Z</time>
      </trkpt>
      <trkpt lat="48.74946" lon="2.28033">
        <ele>75</ele>
        <time>2013-11-10T15:13:15Z</time>
      </trkpt>
      <trkpt lat="48.74916" lon="2.27997">
        <ele>75</ele>
        <time>2013-11-10T15:13:40Z</time>
      </trkpt>
      <trkpt lat="48.7488" lon="2.27965">
        <ele>76</ele>
        <time>2013-11-10T15:14:09Z</time>
      </trkpt>
      <trkpt lat="48.74825" lon="2.27891">
        <ele>77</ele>
        <time>2013-11-10T15:14:56Z</time>
      </trkpt>
      <trkpt lat="48.74821" lon="2.27889">
        <ele>77</ele>
        <time>2013-11-10T15:14:59Z</time>
      </trkpt>
      <trkpt lat="48.74745" lon="2.27835">
        <ele>76</ele>
        <time>2013-11-10T15:15:56Z</time>
      </trkpt>
      <trkpt lat="48.74682" lon="2.27831">
        <ele>73</ele>
        <time>2013-11-10T15:16:39Z</time>
      </trkpt>
      <trkpt lat="48.74643" lon="2.27746">
        <ele>72</ele>
        <time>2013-11-10T15:17:30Z</time>
      </trkpt>
      <trkpt lat="48.74611" lon="2.27751">
        <ele>71</ele>
        <time>2013-11-10T15:17:57Z</time>
      </trkpt>
      <trkpt lat="48.74602" lon="2.2775">
        <ele>71</ele>
        <time>2013-11-10T15:18:26Z</time>
      </trkpt>
      <trkpt lat="48.74572" lon="2.27777">
        <ele>69</ele>
        <time>2013-11-10T15:20:19Z</time>
      </trkpt>
      <trkpt lat="48.74527" lon="2.27804">
        <ele>66</ele>
        <time>2013-11-10T15:20:52Z</time>
      </trkpt>
      <trkpt lat="48.74468" lon="2.2775">
        <ele>63</ele>
        <time>2013-11-10T15:21:37Z</time>
      </trkpt>
      <trkpt lat="48.74396" lon="2.27704">
        <ele>60</ele>
        <time>2013-11-10T15:22:27Z</time>
      </trkpt>
      <trkpt lat="48.74387" lon="2.27697">
        <ele>60</ele>
        <time>2013-11-10T15:22:35Z</time>
      </trkpt>
      <trkpt lat="48.74276" lon="2.27629">
        <ele>57</ele>
        <time>2013-11-10T15:23:54Z</time>
      </trkpt>
      <trkpt lat="48.7417" lon="2.2756">
        <ele>57</ele>
        <time>2013-11-10T15:25:11Z</time>
      </trkpt>
      <trkpt lat="48.74115" lon="2.27512">
        <ele>56</ele>
        <time>2013-11-10T15:25:52Z</time>
      </trkpt>
      <trkpt lat="48.74087" lon="2.27481">
        <ele>56</ele>
        <time>2013-11-10T15:26:13Z</time>
      </trkpt>
      <trkpt lat="48.74076" lon="2.27466">
        <ele>55</ele>
        <time>2013-11-10T15:26:24Z</time>
      </trkpt>
      <trkpt lat="48.74065" lon="2.27456">
        <ele>55</ele>
        <time>2013-11-10T15:26:31Z</time>
      </trkpt>
      <trkpt lat="48.74027" lon="2.27455">
        <ele>55</ele>
        <time>2013-11-10T15:27:00Z</time>
      </trkpt>
      <trkpt lat="48.7399" lon="2.27429">
        <ele>55</ele>
        <time>2013-11-10T15:27:28Z</time>
      </trkpt>
      <trkpt lat="48.73913" lon="2.27376">
        <ele>56</ele>
        <time>2013-11-10T15:28:20Z</time>
      </trkpt>
      <trkpt lat="48.7389" lon="2.2736">
        <ele>57</ele>
        <time>2013-11-10T15:28:37Z</time>
      </trkpt>
      <trkpt lat="48.73842" lon="2.27329">
        <ele>58</ele>
        <time>2013-11-10T15:29:12Z</time>
      </trkpt>
      <trkpt lat="48.73825" lon="2.27295">
        <ele>58</ele>
        <time>2013-11-10T15:29:30Z</time>
      </trkpt>
      <trkpt lat="48.73809" lon="2.27262">
        <ele>59</ele>
        <time>2013-11-10T15:29:47Z</time>
      </trkpt>
      <trkpt lat="48.73812" lon="2.27244">
        <ele>59</ele>
        <time>2013-11-10T15:29:56Z</time>
      </trkpt>
      <trkpt lat="48.73886" lon="2.27156">
        <ele>58</ele>
        <time>2013-11-10T15:31:01Z</time>
      </trkpt>
      <trkpt lat="48.73871" lon="2.27096">
        <ele>58</ele>
        <time>2013-11-10T15:31:35Z</time>
      </trkpt>
      <trkpt lat="48.73822" lon="2.26999">
        <ele>58</ele>
        <time>2013-11-10T15:32:27Z</time>
      </trkpt>
      <trkpt lat="48.7376" lon="2.26898">
        <ele>58</ele>
        <time>2013-11-10T15:33:25Z</time>
      </trkpt>
      <trkpt lat="48.73754" lon="2.26839">
        <ele>58</ele>
        <time>2013-11-10T15:33:52Z</time>
      </trkpt>
      <trkpt lat="48.7377" lon="2.26683">
        <ele>58</ele>
        <time>2013-11-10T15:35:01Z</time>
      </trkpt>
      <trkpt lat="48.73807" lon="2.26528">
        <ele>59</ele>
        <time>2013-11-10T15:36:10Z</time>
      </trkpt>
      <trkpt lat="48.73817" lon="2.26315">
        <ele>59</ele>
        <time>2013-11-10T15:37:43Z</time>
      </trkpt>
      <trkpt lat="48.73777" lon="2.26099">
        <ele>60</ele>
        <time>2013-11-10T15:39:18Z</time>
      </trkpt>
      <trkpt lat="48.73748" lon="2.2587">
        <ele>59</ele>
        <time>2013-11-10T15:40:57Z</time>
      </trkpt>
      <trkpt lat="48.73781" lon="2.25681">
        <ele>61</ele>
        <time>2013-11-10T15:42:23Z</time>
      </trkpt>
      <trkpt lat="48.73806" lon="2.25583">
        <ele>62</ele>
        <time>2013-11-10T15:43:11Z</time>
      </trkpt>
      <trkpt lat="48.73843" lon="2.254">
        <ele>63</ele>
        <time>2013-11-10T15:44:36Z</time>
      </trkpt>
      <trkpt lat="48.73846" lon="2.25335">
        <ele>63</ele>
        <time>2013-11-10T15:45:04Z</time>
      </trkpt>
      <trkpt lat="48.73859" lon="2.25313">
        <ele>64</ele>
        <time>2013-11-10T15:45:24Z</time>
      </trkpt>
      <trkpt lat="48.73862" lon="2.25278">
        <ele>64</ele>
        <time>2013-11-10T15:45:46Z</time>
      </trkpt>
      <trkpt lat="48.73844" lon="2.25212">
        <ele>63</ele>
        <time>2013-11-10T15:46:16Z</time>
      </trkpt>
      <trkpt lat="48.73776" lon="2.25036">
        <ele>63</ele>
        <time>2013-11-10T15:47:45Z</time>
      </trkpt>
      <trkpt lat="48.73748" lon="2.24966">
        <ele>64</ele>
        <time>2013-11-10T15:48:28Z</time>
      </trkpt>
      <trkpt lat="48.73721" lon="2.24901">
        <ele>63</ele>
        <time>2013-11-10T15:49:02Z</time>
      </trkpt>
      <trkpt lat="48.73715" lon="2.24892">
        <ele>63</ele>
        <time>2013-11-10T15:49:08Z</time>
      </trkpt>
      <trkpt lat="48.73685" lon="2.24819">
        <ele>63</ele>
        <time>2013-11-10T15:49:46Z</time>
      </trkpt>
      <trkpt lat="48.73704" lon="2.24746">
        <ele>64</ele>
        <time>2013-11-10T15:50:24Z</time>
      </trkpt>
      <trkpt lat="48.73712" lon="2.24663">
        <ele>62</ele>
        <time>2013-11-10T15:51:01Z</time>
      </trkpt>
      <trkpt lat="48.7376" lon="2.24578">
        <ele>63</ele>
        <time>2013-11-10T15:51:49Z</time>
      </trkpt>
      <trkpt lat="48.73764" lon="2.24513">
        <ele>62</ele>
        <time>2013-11-10T15:52:16Z</time>
      </trkpt>
      <trkpt lat="48.73759" lon="2.24473">
        <ele>61</ele>
        <time>2013-11-10T15:52:35Z</time>
      </trkpt>
      <trkpt lat="48.73754" lon="2.24464">
        <ele>61</ele>
        <time>2013-11-10T15:52:41Z</time>
      </trkpt>
      <trkpt lat="48.73711" lon="2.24368">
        <ele>61</ele>
        <time>2013-11-10T15:53:32Z</time>
      </trkpt>
      <trkpt lat="48.73719" lon="2.24339">
        <ele>61</ele>
        <time>2013-11-10T15:53:49Z</time>
      </trkpt>
      <trkpt lat="48.73722" lon="2.24286">
        <ele>61</ele>
        <time>2013-11-10T15:54:17Z</time>
      </trkpt>
      <trkpt lat="48.73746" lon="2.24283">
        <ele>61</ele>
        <time>2013-11-10T15:55:02Z</time>
      </trkpt>
      <trkpt lat="48.73766" lon="2.24273">
        <ele>61</ele>
        <time>2013-11-10T15:56:59Z</time>
      </trkpt>
      <trkpt lat="48.73789" lon="2.24266">
        <ele>61</ele>
        <time>2013-11-10T15:57:16Z</time>
      </trkpt>
      <trkpt lat="48.73793" lon="2.24213">
        <ele>61</ele>
        <time>2013-11-10T15:57:42Z</time>
      </trkpt>
      <trkpt lat="48.73797" lon="2.24176">
        <ele>61</ele>
        <time>2013-11-10T15:58:04Z</time>
      </trkpt>
      <trkpt lat="48.73851" lon="2.2417">
        <ele>65</ele>
        <time>2013-11-10T15:58:45Z</time>
      </trkpt>
      <trkpt lat="48.73861" lon="2.24165">
        <ele>66</ele>
        <time>2013-11-10T15:58:52Z</time>
      </trkpt>
      <trkpt lat="48.73864" lon="2.24157">
        <ele>66</ele>
        <time>2013-11-10T15:58:56Z</time>
      </trkpt>
      <trkpt lat="48.73845" lon="2.2404">
        <ele>65</ele>
        <time>2013-11-10T15:59:46Z</time>
      </trkpt>
      <trkpt lat="48.73837" lon="2.23978">
        <ele>65</ele>
        <time>2013-11-10T16:00:14Z</time>
      </trkpt>
      <trkpt lat="48.73841" lon="2.23944">
        <ele>65</ele>
        <time>2013-11-10T16:00:29Z</time>
      </trkpt>
      <trkpt lat="48.73871" lon="2.2378">
        <ele>65</ele>
        <time>2013-11-10T16:01:43Z</time>
      </trkpt>
      <trkpt lat="48.73924" lon="2.23752">
        <ele>66</ele>
        <time>2013-11-10T16:02:23Z</time>
      </trkpt>
      <trkpt lat="48.73999" lon="2.23681">
        <ele>66</ele>
        <time>2013-11-10T16:03:20Z</time>
      </trkpt>
      <trkpt lat="48.74039" lon="2.23664">
        <ele>67</ele>
        <time>2013-11-10T16:03:50Z</time>
      </trkpt>
      <trkpt lat="48.74093" lon="2.23647">
        <ele>69</ele>
        <time>2013-11-10T16:04:28Z</time>
      </trkpt>
      <trkpt lat="48.74094" lon="2.23639">
        <ele>69</ele>
        <time>2013-11-10T16:04:35Z</time>
      </trkpt>
      <trkpt lat="48.74069" lon="2.23615">
        <ele>66</ele>
        <time>2013-11-10T16:04:56Z</time>
      </trkpt>
      <trkpt lat="48.74047" lon="2.23595">
        <ele>65</ele>
        <time>2013-11-10T16:05:13Z</time>
      </trkpt>
      <trkpt lat="48.73947" lon="2.23482">
        <ele>65</ele>
        <time>2013-11-10T16:06:36Z</time>
      </trkpt>
      <trkpt lat="48.73873" lon="2.2337">
        <ele>68</ele>
        <time>2013-11-10T16:07:45Z</time>
      </trkpt>
      <trkpt lat="48.73867" lon="2.23353">
        <ele>69</ele>
        <time>2013-11-10T16:07:55Z</time>
      </trkpt>
      <trkpt lat="48.73871" lon="2.23335">
        <ele>69</ele>
        <time>2013-11-10T16:08:05Z</time>
      </trkpt>
    </trkseg>
  </trk>
</gpx>